Latest Weather Observations for Double Island Point

IDQ60901

Issued at 1:05 pm EST Tuesday 16 September 2014 (issued every 10 minutes, with the page automatically refreshed every 10 minutes)

About weather observations | Map of Brisbane area stations | Latest observations for Brisbane area | Other Formats
Station Details ID: 040068 Name: DOUBLE ISLAND POINT LIGHTHOUSE Lat: -25.93 Lon: 153.19 Height: 95.64 m
Data from the previous 72 hours. | See also: Recent months at Double Island Point
Date/Time
EST
Tmp

°C
App
Tmp
°C
Dew
Point
°C
Rel
Hum
%
Delta-T

°C
Wind Press
QNH
hPa
Press
MSL
hPa
Rain
since
9 am
mm
Dir
 
Spd
km/h
Gust
km/h
Spd
kts
Gust
kts
16/01:00pm 25.2 24.2 14.6 51 6.3 N 13 24 7 13 1014.9 1014.6 0.0
16/12:30pm 25.7 25.5 15.7 54 6.1 N 11 19 6 10 1015.5 1015.2 0.0
16/12:00pm 25.9 26.4 17.5 59 5.3 N 11 20 6 11 1016.2 1015.9 0.0
16/11:30am 24.8 25.5 17.0 62 4.8 N 9 17 5 9 1016.8 1016.5 0.0
16/11:00am 24.8 25.6 17.3 63 4.7 N 9 11 5 6 1017.3 1017.0 0.0
16/10:30am 23.1 22.9 16.6 67 4.0 N 13 17 7 9 1017.7 1017.4 0.0
16/10:00am 22.5 21.8 16.5 69 3.7 N 15 19 8 10 1017.8 1017.5 0.0
16/09:30am 21.8 20.4 17.0 74 2.9 NNW 20 24 11 13 1018.0 1017.7 0.0
16/09:00am 19.9 17.7 16.0 78 2.3 NNW 22 28 12 15 1018.2 1017.9 0.0
16/08:30am 19.1 17.2 15.8 81 2.0 NNW 20 24 11 13 1018.4 1018.1 0.0
16/08:00am 18.6 16.6 15.5 82 1.8 NNW 20 26 11 14 1018.3 1018.0 0.0
16/07:30am 18.2 16.8 15.5 84 1.6 NW 17 20 9 11 1018.2 1017.9 0.0
16/07:00am 17.4 15.2 15.0 86 1.4 NW 20 24 11 13 1017.9 1017.6 0.0
16/06:30am 17.0 14.8 15.0 88 1.2 NW 20 28 11 15 1017.7 1017.4 0.0
16/06:00am 16.7 14.0 14.7 88 1.2 NW 22 28 12 15 1017.3 1017.0 0.0
16/05:30am 16.8 14.1 14.6 87 1.3 NW 22 28 12 15 1017.0 1016.7 0.0
16/05:00am 16.9 14.1 14.4 85 1.4 NW 22 26 12 14 1016.7 1016.4 0.0
16/04:30am 17.0 13.7 14.1 83 1.7 NW 24 28 13 15 1016.5 1016.2 0.0
16/04:00am 17.2 13.9 13.9 81 1.9 NW 24 30 13 16 1016.2 1015.9 0.0
16/03:30am 17.6 13.9 13.9 79 2.1 NNW 26 32 14 17 1015.9 1015.6 0.0
16/03:00am 17.9 14.2 13.8 77 2.3 NNW 26 33 14 18 1015.9 1015.6 0.0
16/02:30am 17.7 14.4 14.0 79 2.1 NNW 24 30 13 16 1015.9 1015.6 0.0
16/02:00am 17.7 14.0 14.0 79 2.1 NNW 26 30 14 16 1016.0 1015.7 0.0
16/01:30am 18.0 14.9 14.5 80 2.0 NNW 24 26 13 14 1016.2 1015.9 0.0
16/01:00am 18.1 15.0 14.6 80 2.0 NNW 24 30 13 16 1016.5 1016.2 0.0
16/12:30am 18.1 15.8 14.6 80 2.0 NNW 20 28 11 15 1016.7 1016.4 0.0
16/12:00am 18.1 15.8 14.6 80 2.0 NNW 20 26 11 14 1016.9 1016.6 0.0
 
Date/Time
EST
Tmp

°C
App
Tmp
°C
Dew
Point
°C
Rel
Hum
%
Delta-T

°C
Wind Press
QNH
hPa
Press
MSL
hPa
Rain
since
9 am
mm
Dir
 
Spd
km/h
Gust
km/h
Spd
kts
Gust
kts
15/11:30pm 18.2 16.6 14.9 81 1.9 NNW 17 24 9 13 1017.1 1016.8 0.0
15/11:00pm 18.2 15.8 14.5 79 2.1 NNW 20 24 11 13 1017.2 1016.9 0.0
15/10:30pm 18.7 16.4 14.6 77 2.4 NNW 20 24 11 13 1017.3 1017.0 0.0
15/10:00pm 19.1 18.4 13.3 69 3.3 N 9 17 5 9 1017.4 1017.1 0.0
15/09:30pm 19.3 17.9 13.5 69 3.3 N 13 22 7 12 1017.4 1017.1 0.0
15/09:00pm 19.5 18.2 13.7 69 3.3 N 13 24 7 13 1017.3 1017.0 0.0
15/08:30pm 19.6 18.0 14.0 70 3.2 N 15 26 8 14 1017.2 1016.9 0.0
15/08:00pm 19.7 17.2 13.4 67 3.6 N 19 32 10 17 1017.0 1016.7 0.0
15/07:30pm 20.0 16.6 13.7 67 3.6 N 24 35 13 19 1016.9 1016.6 0.0
15/07:00pm 19.9 17.3 13.8 68 3.5 N 20 32 11 17 1016.8 1016.5 0.0
15/06:30pm 19.8 15.1 13.3 66 3.7 N 30 33 16 18 1016.4 1016.1 0.0
15/06:00pm 19.9 15.8 13.8 68 3.5 NNE 28 30 15 16 1016.2 1015.9 0.0
15/05:30pm 20.3 16.2 13.7 66 3.8 N 28 32 15 17 1016.0 1015.7 0.0
15/05:00pm 21.5 18.1 13.7 61 4.5 NNE 24 30 13 16 1016.0 1015.7 0.0
15/04:30pm 22.0 19.2 13.1 57 5.1 NNE 20 28 11 15 1015.8 1015.5 0.0
15/04:00pm 23.0 21.0 14.0 57 5.3 NNE 17 22 9 12 1015.7 1015.4 0.0
15/03:30pm 23.3 22.2 14.3 57 5.3 NE 13 20 7 11 1015.7 1015.4 0.0
15/03:00pm 23.8 22.8 14.5 56 5.5 NE 13 20 7 11 1015.8 1015.5 0.0
15/02:30pm 24.1 22.8 13.6 52 6.2 NNE 13 19 7 10 1016.0 1015.7 0.0
15/02:00pm 24.9 23.8 14.4 52 6.3 NNE 13 19 7 10 1016.2 1015.9 0.0
15/01:30pm 24.5 22.9 14.0 52 6.2 NNE 15 20 8 11 1016.6 1016.3 0.0
15/01:00pm 24.8 23.6 14.0 51 6.4 NNE 13 17 7 9 1016.9 1016.6 0.0
15/12:30pm 24.8 24.3 14.9 54 5.9 NNE 11 17 6 9 1017.4 1017.1 0.0
15/12:00pm 22.9 21.6 12.5 52 5.9 N 11 15 6 8 1018.0 1017.7 0.0
15/11:30am 23.6 23.1 13.8 54 5.8 N 9 17 5 9 1018.4 1018.1 0.0
15/11:00am 23.1 22.6 13.8 55 5.4 N 9 15 5 8 1018.9 1018.6 0.0
15/10:30am 22.2 21.8 13.0 56 5.3 N 7 13 4 7 1019.3 1019.0 0.0
15/10:00am 21.8 21.2 12.4 55 5.3 NNW 7 15 4 8 1019.5 1019.2 0.0
15/09:30am 22.0 21.8 13.1 57 5.1 N 6 13 3 7 1019.6 1019.3 0.0
15/09:00am 21.5 21.2 13.4 60 4.7 N 7 13 4 7 1019.8 1019.5 0.0
15/08:30am 20.8 20.6 13.0 61 4.5 N 6 11 3 6 1020.0 1019.7 0.0
15/08:00am 20.2 20.1 13.2 64 4.0 N 6 9 3 5 1019.8 1019.5 0.0
15/07:30am 19.1 18.6 12.1 64 3.9 N 6 7 3 4 1019.6 1019.3 0.0
15/07:00am 18.5 18.5 12.5 68 3.4 N 4 6 2 3 1019.3 1019.0 0.0
15/06:30am 17.6 17.3 13.3 76 2.4 NNW 7 9 4 5 1019.1 1018.8 0.0
15/06:00am 17.2 16.6 13.5 79 2.1 WNW 9 11 5 6 1018.9 1018.6 0.0
15/05:30am 17.2 15.8 12.3 73 2.7 NNE 11 13 6 7 1018.6 1018.3 0.0
15/05:00am 17.1 16.4 12.0 72 2.8 N 7 11 4 6 1018.6 1018.3 0.0
15/04:30am 17.4 16.3 12.1 71 2.9 NE 9 11 5 6 1018.4 1018.1 0.0
15/04:00am 17.4 16.7 11.9 70 3.0 NNE 7 9 4 5 1018.2 1017.9 0.0
15/03:30am 17.8 16.7 12.0 69 3.2 ENE 9 9 5 5 1018.4 1018.1 0.0
15/03:00am 17.8 16.4 12.3 70 3.1 ENE 11 15 6 8 1018.2 1017.9 0.0
15/02:30am 17.8 16.9 12.5 71 3.0 E 9 11 5 6 1018.4 1018.1 0.0
15/02:00am 17.8 16.4 12.3 70 3.0 ENE 11 15 6 8 1018.6 1018.3 0.0
15/01:30am 18.0 17.1 12.5 70 3.1 E 9 13 5 7 1019.0 1018.7 0.0
15/01:00am 18.0 16.6 12.2 69 3.2 ENE 11 15 6 8 1019.2 1018.9 0.0
15/12:30am 18.2 16.4 12.2 68 3.3 ENE 13 17 7 9 1019.3 1019.0 0.0
15/12:00am 18.1 16.3 12.1 68 3.3 ENE 13 17 7 9 1019.5 1019.2 0.0
 
Date/Time
EST
Tmp

°C
App
Tmp
°C
Dew
Point
°C
Rel
Hum
%
Delta-T

°C
Wind Press
QNH
hPa
Press
MSL
hPa
Rain
since
9 am
mm
Dir
 
Spd
km/h
Gust
km/h
Spd
kts
Gust
kts
14/11:30pm 18.1 15.5 11.9 67 3.4 E 17 19 9 10 1019.8 1019.5 0.0
14/11:00pm 18.1 15.6 12.3 69 3.2 E 17 20 9 11 1019.9 1019.6 0.0
14/10:30pm 18.2 15.6 12.0 67 3.4 E 17 19 9 10 1020.1 1019.8 0.0
14/10:00pm 18.2 15.1 11.5 65 3.7 E 19 22 10 12 1020.1 1019.8 0.0
14/09:30pm 18.2 14.9 11.7 66 3.6 E 20 24 11 13 1020.2 1019.9 0.0
14/09:00pm 18.3 15.0 11.6 65 3.7 E 20 24 11 13 1020.1 1019.8 0.0
14/08:30pm 18.3 14.9 11.4 64 3.8 E 20 24 11 13 1020.3 1020.0 0.0
14/08:00pm 18.4 15.4 11.9 66 3.6 E 19 24 10 13 1020.3 1020.0 0.0
14/07:30pm 18.3 14.9 11.4 64 3.8 E 20 24 11 13 1020.2 1019.9 0.0
14/07:00pm 18.5 15.3 12.0 66 3.6 E 20 26 11 14 1019.9 1019.6 0.0
14/06:30pm 18.6 15.5 12.1 66 3.6 E 20 24 11 13 1019.7 1019.4 0.0
14/06:00pm 18.5 15.2 11.6 64 3.8 E 20 24 11 13 1019.8 1019.5 0.0
14/05:30pm 18.9 15.6 11.7 63 4.0 E 20 24 11 13 1019.8 1019.5 0.0
14/05:00pm 19.5 16.2 11.5 60 4.4 E 20 26 11 14 1019.6 1019.3 0.0
14/04:30pm 19.8 16.6 11.3 58 4.7 ESE 19 24 10 13 1019.6 1019.3 0.0
14/04:00pm 20.3 16.8 12.3 60 4.5 SE 22 26 12 14 1019.3 1019.0 0.0
14/03:30pm 20.6 17.1 12.3 59 4.7 ESE 22 26 12 14 1019.3 1019.0 0.0
14/03:00pm 20.8 17.2 11.7 56 5.1 ESE 22 28 12 15 1019.2 1018.9 0.0
14/02:30pm 21.3 18.2 12.2 56 5.1 ESE 20 26 11 14 1019.4 1019.1 0.0
14/02:00pm 21.4 17.8 11.7 54 5.4 ESE 22 28 12 15 1019.6 1019.3 0.0
14/01:30pm 21.5 17.5 11.8 54 5.4 ESE 24 28 13 15 1019.8 1019.5 0.0
14/01:00pm 21.9 18.1 12.5 55 5.3 ESE 24 30 13 16 1020.4 1020.1 0.0
14/12:30pm 21.9 18.0 12.2 54 5.5 ESE 24 30 13 16 1020.8 1020.5 0.0
14/12:00pm 22.0 17.8 12.5 54 5.4 ESE 26 32 14 17 1021.1 1020.9 0.0
14/11:30am 21.7 17.4 13.1 58 4.9 ESE 28 33 15 18 1021.5 1021.3 0.0
14/11:00am 22.3 18.1 13.4 57 5.1 ESE 28 33 15 18 1021.9 1021.7 0.0
14/10:30am 21.8 17.7 12.6 56 5.2 E 26 32 14 17 1022.3 1022.1 0.0
14/10:00am 22.5 18.6 13.3 56 5.3 E 26 32 14 17 1022.5 1022.3 0.0
14/09:30am 22.1 18.2 13.2 57 5.1 E 26 32 14 17 1022.6 1022.4 0.0
14/09:00am 21.6 16.7 12.7 57 5.1 E 30 33 16 18 1022.7 1022.5 0.0
14/08:30am 20.7 15.5 12.9 61 4.4 ESE 32 35 17 19 1022.4 1022.2 0.0
14/08:00am 19.7 14.1 12.0 61 4.3 ESE 33 39 18 21 1022.5 1022.3 0.0
14/07:30am 20.5 15.6 12.5 60 4.5 ESE 30 37 16 20 1022.1 1021.9 0.0
14/07:00am 19.7 14.4 12.5 63 4.0 ESE 32 37 17 20 1021.9 1021.7 0.0
14/06:30am 19.0 13.7 12.5 66 3.6 ESE 32 39 17 21 1021.4 1021.2 0.0
14/06:00am 18.6 13.1 11.9 65 3.7 ESE 32 37 17 20 1021.1 1020.9 0.0
14/05:30am 18.6 13.1 12.4 67 3.5 ESE 33 37 18 20 1020.7 1020.4 0.0
14/05:00am 18.6 13.0 12.1 66 3.6 ESE 33 39 18 21 1020.5 1020.2 0.0
14/04:30am 18.7 13.5 12.7 68 3.4 E 32 35 17 19 1020.4 1020.1 0.0
14/04:00am 18.6 13.8 12.8 69 3.3 E 30 35 16 19 1020.3 1020.0 0.0
14/03:30am 18.6 13.7 12.6 68 3.4 ESE 30 35 16 19 1020.5 1020.2 0.0
14/03:00am 18.6 13.3 12.4 67 3.5 E 32 35 17 19 1020.5 1020.2 0.0
14/02:30am 18.8 14.1 13.2 70 3.2 ESE 30 35 16 19 1021.1 1020.9 0.0
14/02:00am 18.7 13.8 12.7 68 3.4 ESE 30 35 16 19 1021.4 1021.2 0.0
14/01:30am 18.8 14.0 13.0 69 3.3 E 30 35 16 19 1021.5 1021.3 0.0
14/01:00am 18.8 13.4 12.1 65 3.7 ESE 32 37 17 20 1021.8 1021.6 0.0
14/12:30am 19.0 13.5 12.5 66 3.6 ESE 33 39 18 21 1022.0 1021.8 0.0
14/12:00am 19.3 13.5 12.8 66 3.7 ESE 35 39 19 21 1022.4 1022.2 0.0
 
Date/Time
EST
Tmp

°C
App
Tmp
°C
Dew
Point
°C
Rel
Hum
%
Delta-T

°C
Wind Press
QNH
hPa
Press
MSL
hPa
Rain
since
9 am
mm
Dir
 
Spd
km/h
Gust
km/h
Spd
kts
Gust
kts
13/11:30pm 19.3 14.0 13.2 68 3.5 ESE 33 39 18 21 1022.6 1022.4 0.0
13/11:00pm 19.2 13.3 12.5 65 3.7 ESE 35 41 19 22 1022.6 1022.4 0.0
13/10:30pm 19.3 13.8 12.6 65 3.8 ESE 33 37 18 20 1022.8 1022.6 0.0
13/10:00pm 19.2 14.0 12.9 67 3.6 ESE 32 37 17 20 1022.8 1022.6 0.0
13/09:30pm 19.3 14.2 13.2 68 3.5 ESE 32 37 17 20 1022.8 1022.6 0.0
13/09:00pm 19.4 13.9 12.4 64 3.9 ESE 33 37 18 20 1022.9 1022.7 0.0
13/08:30pm 19.3 14.3 12.3 64 3.9 ESE 30 35 16 19 1022.9 1022.7 0.0
13/08:00pm 19.3 14.3 12.3 64 3.9 ESE 30 33 16 18 1022.7 1022.5 0.0
13/07:30pm 19.4 14.4 12.2 63 4.0 ESE 30 33 16 18 1022.4 1022.2 0.0
13/07:00pm 19.4 14.5 12.4 64 3.9 ESE 30 33 16 18 1022.2 1022.0 0.0
13/06:30pm 19.4 14.2 11.7 61 4.3 ESE 30 33 16 18 1021.9 1021.7 0.0
13/06:00pm 19.3 15.1 12.3 64 3.9 SE 26 30 14 16 1022.0 1021.8 0.0
13/05:30pm 19.3 15.8 12.3 64 3.9 ESE 22 24 12 13 1021.9 1021.7 0.0
13/05:00pm 19.7 15.4 12.0 61 4.3 SE 26 30 14 16 1021.9 1021.7 0.0
13/04:30pm 19.9 17.0 12.9 64 4.0 ESE 20 26 11 14 1021.7 1021.5 0.0
13/04:00pm 20.0 16.0 13.0 64 4.0 SE 26 30 14 16 1021.6 1021.4 0.0
13/03:30pm 20.4 16.8 13.1 63 4.2 SE 24 28 13 15 1021.5 1021.3 0.0
13/03:00pm 20.7 17.4 12.9 61 4.4 SE 22 24 12 13 1021.7 1021.5 0.0
13/02:30pm 20.6 17.7 12.8 61 4.4 SE 20 24 11 13 1021.6 1021.4 0.0
13/02:00pm 21.1 18.2 12.8 59 4.7 ESE 20 24 11 13 1021.7 1021.5 0.0
13/01:30pm 21.6 18.4 13.0 58 4.9 ESE 22 28 12 15 1021.8 1021.6 0.0

Latest Capital City Observations: Canberra | Sydney | Melbourne | Brisbane | Adelaide | Perth | Hobart | Darwin

Other Formats:

Comma delimited format used in spreadsheet applications
http://www.bom.gov.au/fwo/IDQ60901/IDQ60901.94584.axf

JavaScript Object Notation format (JSON) in row-major order
http://www.bom.gov.au/fwo/IDQ60901/IDQ60901.94584.json